38 minutes ago
Runway Headwind Crosswind Length
14,534 ft
12,500 ft
9,229 ft
METAR VIDP 151730Z 00000KT 3000 HZ FEW100 29/04 Q1008 NOSIG

METAR definition | Embed

METAR Indira Gandhi International Airport

Indira Gandhi International Airport is a large airport in New Delhi, India. The airport has 3 runways: 11/29 (14,534 ft), 10/28 and 9/27

This report was made for Indira Gandhi International Airport on April 15, 2021 11:00 pm, local time.

Airport observations

There is little or no wind from a variable direction.

Visibility is 1⅞ mi.

There are few clouds at an altitude of 10,000 ft. No ceiling has been observed.

Current weather is haze. The temperature and wind chill are 84 °F. The dew point is 39 °F, the relative humidity is 20%. The air pressure at sea level is 29.77 inHg (QNH).

Daylight period

Today the sun rises at 5:55 am and sets at 6:47 pm. This applies to Indira Gandhi International Airport, the universal daylight period may be different. The difference between the local time and UTC is +5 hour 30 minutes. Daylight saving time is currently in progress.

Historical data

Donate

Will you help us to keep Metar-Taf.com running?
Your contribution helps further development of the site and to pay for the expenses.

No more ads

Are you donating $ 5 or more? Then we'll never show you ads again, as a token of our eternal gratitude!
Log in before you donate

Do you want the flying weather of Indira Gandhi International Airport on your website? Read more   Free!